Bela Vista, Brazil
Current Conditions -  °F | °C
As of 4:00 PM on Thursday 23 Oct 2014 (Local Time) from SBCG Reporting Station
Thunderstorm Thunderstorm  
Wind Chill: 91°   Ceiling: Unl
Heat Index: 93°   Visibility: 6mi
Dew Point: 64°   Wind: 7mph
Humidity: 41%   Direction: NA
Pressure: 29.88"   Gusts: NA
Location:  22.11°S, 56.52°W
Report Text: SBCG 231900Z VRB06KT 9999 TS VCSH SCT045 FEW050CB 33/18 Q1012
Loading
Personal Weather Stations






























Interactive Weather Map
Tropical Storm Tracking
New forecast layout! Learn more

10-Day Weather Forecast

Advertisements
Track Severe Weather on mobile